createdAt,value
2018-05-07T00:06:24.195Z,1009.69
2018-05-07T00:06:55.190Z,1009.69
2018-05-07T00:07:55.141Z,1009.68
2018-05-07T00:08:55.268Z,1009.68
2018-05-07T00:09:55.739Z,1009.67
2018-05-07T00:10:55.299Z,1009.66
2018-05-07T00:11:55.140Z,1009.67
2018-05-07T00:12:55.105Z,1009.66
2018-05-07T00:13:55.109Z,1009.67
2018-05-07T00:14:55.081Z,1009.63
2018-05-07T00:15:55.082Z,1009.66
2018-05-07T00:16:55.107Z,1009.62
2018-05-07T00:17:55.075Z,1009.62
2018-05-07T00:18:55.047Z,1009.60
2018-05-07T00:19:55.079Z,1009.59
2018-05-07T00:20:55.072Z,1009.59
2018-05-07T00:21:55.041Z,1009.57
2018-05-07T00:22:55.114Z,1009.54
2018-05-07T00:23:55.017Z,1009.55
2018-05-07T00:24:55.020Z,1009.56
2018-05-07T00:25:54.988Z,1009.54
2018-05-07T00:26:54.988Z,1009.54
2018-05-07T00:27:55.236Z,1009.52
2018-05-07T00:28:54.963Z,1009.51
2018-05-07T00:29:54.945Z,1009.54
2018-05-07T00:30:54.948Z,1009.53
2018-05-07T00:31:54.928Z,1009.51
2018-05-07T00:32:55.160Z,1009.50
2018-05-07T00:33:55.013Z,1009.48
2018-05-07T00:34:55.036Z,1009.54
2018-05-07T00:35:55.710Z,1009.48
2018-05-07T00:36:54.940Z,1009.54
2018-05-07T00:37:54.880Z,1009.50
2018-05-07T00:38:54.936Z,1009.54
2018-05-07T00:39:54.864Z,1009.54
2018-05-07T00:40:54.876Z,1009.55
2018-05-07T00:41:54.860Z,1009.51
2018-05-07T00:42:56.191Z,1009.53
2018-05-07T00:43:54.917Z,1009.52
2018-05-07T00:44:54.817Z,1009.50
2018-05-07T00:45:55.700Z,1009.54
2018-05-07T00:46:54.864Z,1009.49
2018-05-07T00:47:55.899Z,1009.52
2018-05-07T00:48:55.662Z,1009.53
2018-05-07T00:49:54.793Z,1009.55
2018-05-07T00:50:54.779Z,1009.55
2018-05-07T00:51:54.757Z,1009.56
2018-05-07T00:52:55.061Z,1009.58
2018-05-07T00:53:54.730Z,1009.56
2018-05-07T00:54:54.774Z,1009.59
2018-05-07T00:55:54.713Z,1009.62
2018-05-07T00:56:54.702Z,1009.56
2018-05-07T00:57:54.766Z,1009.59
2018-05-07T00:58:54.782Z,1009.59
2018-05-07T01:00:00.240Z,1009.59
2018-05-07T01:00:56.757Z,1009.56
2018-05-07T01:01:54.667Z,1009.59
2018-05-07T01:02:54.702Z,1009.62
2018-05-07T01:03:54.770Z,1009.59
2018-05-07T01:04:55.169Z,1009.61
2018-05-07T01:05:54.670Z,1009.63
2018-05-07T01:06:54.635Z,1009.60
2018-05-07T01:07:54.645Z,1009.63
2018-05-07T01:08:54.585Z,1009.63
2018-05-07T04:23:36.384Z,1009.05
2018-05-07T04:24:31.328Z,1009.08
2018-05-07T04:25:31.229Z,1009.03
2018-05-07T04:26:31.222Z,1009.04
2018-05-07T04:33:44.342Z,1009.05
2018-05-07T04:34:44.249Z,1009.08
2018-05-07T04:35:44.189Z,1009.09
2018-05-07T04:36:44.541Z,1009.09
2018-05-07T04:37:44.152Z,1009.09
2018-05-07T04:38:44.132Z,1009.11
2018-05-07T04:39:44.112Z,1009.09
2018-05-07T04:40:44.207Z,1009.12
2018-05-07T04:41:44.236Z,1009.14
2018-05-07T04:42:44.091Z,1009.14
2018-05-07T04:43:44.064Z,1009.17
2018-05-07T04:44:44.069Z,1009.13
2018-05-07T04:45:44.061Z,1009.16
2018-05-07T04:46:44.043Z,1009.14
2018-05-07T04:47:44.028Z,1009.16
2018-05-07T04:48:44.077Z,1009.16
2018-05-07T04:49:44.002Z,1009.16
2018-05-07T04:50:44.006Z,1009.19
2018-05-07T04:51:44.001Z,1009.19
2018-05-07T04:52:43.975Z,1009.18
2018-05-07T04:53:44.055Z,1009.17
2018-05-07T04:54:43.954Z,1009.20
2018-05-07T04:55:44.018Z,1009.16
2018-05-07T04:56:43.935Z,1009.15
2018-05-07T04:57:43.937Z,1009.11
2018-05-07T04:58:43.923Z,1009.15
2018-05-07T04:59:43.915Z,1009.18
2018-05-07T05:00:43.896Z,1009.16
2018-05-07T05:01:43.884Z,1009.12
2018-05-07T05:02:43.864Z,1009.14
2018-05-07T05:03:43.863Z,1009.15
2018-05-07T05:04:43.868Z,1009.14
2018-05-07T05:05:43.837Z,1009.12
2018-05-07T05:06:43.830Z,1009.08
2018-05-07T05:07:43.854Z,1009.11
2018-05-07T05:08:43.882Z,1009.08
2018-05-07T05:09:44.006Z,1009.09
2018-05-07T05:10:43.794Z,1009.10
2018-05-07T05:11:43.795Z,1009.10
2018-05-07T05:12:43.771Z,1009.09
2018-05-07T05:13:43.751Z,1009.04
2018-05-07T05:14:43.747Z,1009.09
2018-05-07T05:15:43.771Z,1009.14
2018-05-07T05:16:43.731Z,1009.09
2018-05-07T05:17:43.724Z,1009.10
2018-05-07T05:18:43.703Z,1009.13
2018-05-07T05:19:43.703Z,1009.12
2018-05-07T05:20:43.717Z,1009.10
2018-05-07T05:21:43.681Z,1009.11
2018-05-07T05:22:43.697Z,1009.11
2018-05-07T05:23:43.652Z,1009.14
2018-05-07T05:24:43.655Z,1009.10
2018-05-07T05:25:43.641Z,1009.10
2018-05-07T05:26:43.634Z,1009.12
2018-05-07T05:27:43.651Z,1009.09
2018-05-07T05:28:43.604Z,1009.10
2018-05-07T05:29:43.597Z,1009.10
2018-05-07T05:30:43.589Z,1009.11
2018-05-07T05:31:43.578Z,1009.11
2018-05-07T05:32:43.603Z,1009.15
2018-05-07T05:33:43.562Z,1009.10
2018-05-07T05:34:43.552Z,1009.14
2018-05-07T05:35:43.552Z,1009.11
2018-05-07T05:36:43.537Z,1009.14
2018-05-07T05:37:43.975Z,1009.17
2018-05-07T05:38:43.508Z,1009.18
2018-05-07T05:39:43.503Z,1009.17
2018-05-07T05:40:43.484Z,1009.17
2018-05-07T05:41:43.494Z,1009.17
2018-05-07T05:42:43.475Z,1009.16
2018-05-07T05:43:43.642Z,1009.18
2018-05-07T05:44:43.460Z,1009.15
2018-05-07T05:45:43.445Z,1009.14
2018-05-07T05:46:43.442Z,1009.13
2018-05-07T05:47:43.432Z,1009.14
2018-05-07T05:48:43.417Z,1009.11
2018-05-07T05:49:43.412Z,1009.10
2018-05-07T05:50:43.392Z,1009.07
2018-05-07T05:51:43.394Z,1009.07
2018-05-07T05:52:43.382Z,1009.08
2018-05-07T05:53:43.382Z,1009.08
2018-05-07T05:54:43.391Z,1009.11
2018-05-07T05:55:43.346Z,1009.10
2018-05-07T05:56:43.343Z,1009.10
2018-05-07T05:57:43.329Z,1009.09
2018-05-07T05:58:43.332Z,1009.09
2018-05-07T05:59:43.343Z,1009.09
2018-05-07T06:00:43.317Z,1009.07
2018-05-07T06:01:43.296Z,1009.07
2018-05-07T06:02:43.300Z,1009.07
2018-05-07T06:03:43.328Z,1009.01
2018-05-07T06:04:43.303Z,1009.01
2018-05-07T06:05:43.262Z,1009.02
2018-05-07T06:06:43.249Z,1009.04
2018-05-07T06:07:43.240Z,1009.02
2018-05-07T06:08:43.224Z,1009.04
2018-05-07T06:09:43.250Z,1008.99
2018-05-07T06:10:43.209Z,1009.03
2018-05-07T06:11:43.206Z,1009.02
2018-05-07T06:12:43.221Z,1009.00
2018-05-07T06:13:43.186Z,1009.01
2018-05-07T06:14:43.334Z,1009.01
2018-05-07T06:15:43.167Z,1009.02
2018-05-07T06:16:43.190Z,1008.96
2018-05-07T06:17:43.157Z,1008.99
2018-05-07T06:18:43.146Z,1008.97
2018-05-07T06:19:43.167Z,1008.95
2018-05-07T06:20:43.126Z,1008.92
2018-05-07T06:21:43.121Z,1008.93
2018-05-07T06:22:43.115Z,1008.96
2018-05-07T06:23:43.110Z,1008.97
2018-05-07T06:24:43.114Z,1008.93
2018-05-07T06:25:43.089Z,1009.01
2018-05-07T06:26:43.224Z,1009.01
2018-05-07T06:27:43.060Z,1009.01
2018-05-07T06:28:43.061Z,1009.06
2018-05-07T06:29:43.051Z,1009.00
2018-05-07T06:30:43.040Z,1008.99
2018-05-07T06:31:43.021Z,1009.04
2018-05-07T06:32:43.157Z,1009.04
2018-05-07T06:33:43.017Z,1009.03
2018-05-07T06:34:43.014Z,1009.05
2018-05-07T06:35:42.998Z,1009.05
2018-05-07T06:36:42.988Z,1009.04
2018-05-07T06:37:42.989Z,1009.06
2018-05-07T06:38:42.980Z,1009.08
2018-05-07T06:39:42.963Z,1009.06
2018-05-07T06:40:42.950Z,1009.08
2018-05-07T06:41:42.955Z,1009.09
2018-05-07T06:42:42.939Z,1009.07
2018-05-07T06:43:42.967Z,1009.12
2018-05-07T06:44:42.920Z,1009.12
2018-05-07T06:45:42.912Z,1009.08
2018-05-07T06:46:42.897Z,1009.04
2018-05-07T06:47:42.900Z,1009.05
2018-05-07T06:48:42.912Z,1009.07
2018-05-07T06:49:42.884Z,1009.09
2018-05-07T06:50:42.879Z,1009.08
2018-05-07T06:51:42.867Z,1009.06
2018-05-07T06:52:42.853Z,1009.11
2018-05-07T06:53:43.015Z,1009.09
2018-05-07T06:54:42.837Z,1009.12
2018-05-07T06:55:42.835Z,1009.13
2018-05-07T06:56:42.822Z,1009.12
2018-05-07T06:57:42.805Z,1009.13
2018-05-07T06:58:42.808Z,1009.11
2018-05-07T06:59:42.859Z,1009.13
2018-05-07T07:00:42.791Z,1009.18
2018-05-07T07:01:42.784Z,1009.15
2018-05-07T07:02:42.875Z,1009.13
2018-05-07T07:03:42.763Z,1009.10
2018-05-07T07:04:42.756Z,1009.12
2018-05-07T07:05:42.766Z,1009.13
2018-05-07T07:06:42.744Z,1009.10
2018-05-07T07:07:42.733Z,1009.09
2018-05-07T07:08:42.812Z,1009.10
2018-05-07T07:09:42.750Z,1009.11
2018-05-07T07:10:42.743Z,1009.12
2018-05-07T07:11:42.700Z,1009.07
2018-05-07T07:12:42.695Z,1009.11
2018-05-07T07:13:42.695Z,1009.09
2018-05-07T07:14:42.688Z,1009.06
2018-05-07T07:15:42.671Z,1009.03
2018-05-07T07:16:42.661Z,1009.03
2018-05-07T07:17:42.659Z,1009.03
2018-05-07T07:18:42.641Z,1009.01
2018-05-07T07:19:42.634Z,1009.02
2018-05-07T07:20:42.659Z,1009.00
2018-05-07T07:21:42.690Z,1009.01
2018-05-07T07:22:42.622Z,1008.95
2018-05-07T07:23:42.610Z,1008.94
2018-05-07T07:24:42.603Z,1008.97
2018-05-07T07:25:42.744Z,1008.98
2018-05-07T07:26:42.583Z,1008.94
2018-05-07T07:27:42.573Z,1008.97
2018-05-07T07:28:42.573Z,1008.94
2018-05-07T07:29:42.562Z,1008.98
2018-05-07T07:30:42.553Z,1008.97
2018-05-07T07:31:42.693Z,1008.96
2018-05-07T07:32:42.546Z,1009.00
2018-05-07T07:33:42.615Z,1009.01
2018-05-07T07:34:42.521Z,1009.00
2018-05-07T07:35:42.528Z,1009.03
2018-05-07T07:36:43.499Z,1009.02
2018-05-07T07:37:42.504Z,1009.04
2018-05-07T07:38:42.579Z,1009.01
2018-05-07T07:39:42.491Z,1009.03
2018-05-07T07:40:42.488Z,1008.98
2018-05-07T07:41:42.479Z,1008.98
2018-05-07T07:42:42.467Z,1008.96
2018-05-07T07:43:42.466Z,1008.96
2018-05-07T07:44:42.451Z,1008.97
2018-05-07T07:45:42.440Z,1008.93
2018-05-07T07:46:42.427Z,1008.95
2018-05-07T07:47:42.434Z,1008.95
2018-05-07T07:48:42.414Z,1008.95
2018-05-07T07:49:42.493Z,1008.93
2018-05-07T07:50:42.406Z,1008.94
2018-05-07T07:51:42.391Z,1008.92
2018-05-07T07:52:42.383Z,1008.93
2018-05-07T07:53:42.421Z,1008.93
2018-05-07T07:54:42.375Z,1008.92
2018-05-07T07:55:42.560Z,1008.93
2018-05-07T07:56:42.369Z,1008.95
2018-05-07T07:57:42.355Z,1008.93
2018-05-07T07:58:42.340Z,1008.93
2018-05-07T07:59:42.332Z,1008.95
2018-05-07T08:00:42.563Z,1008.94
2018-05-07T08:01:42.379Z,1008.94
2018-05-07T08:02:42.328Z,1008.98
2018-05-07T08:03:42.322Z,1008.99
2018-05-07T08:04:42.304Z,1009.01
2018-05-07T08:05:42.326Z,1009.02
2018-05-07T08:06:42.289Z,1008.99
2018-05-07T08:07:42.315Z,1008.96
2018-05-07T08:08:42.281Z,1009.00
2018-05-07T08:09:42.263Z,1009.02
2018-05-07T08:10:42.260Z,1008.98
2018-05-07T08:11:42.264Z,1008.96
2018-05-07T08:12:42.282Z,1008.97
2018-05-07T08:13:42.236Z,1008.97
2018-05-07T08:14:42.242Z,1009.03
2018-05-07T08:15:42.235Z,1009.00
2018-05-07T08:16:42.237Z,1008.97
2018-05-07T08:17:42.252Z,1008.98
2018-05-07T08:18:42.207Z,1008.97
2018-05-07T08:19:42.205Z,1008.95
2018-05-07T08:20:42.201Z,1008.94
2018-05-07T08:21:42.193Z,1008.92
2018-05-07T08:22:42.213Z,1008.95
2018-05-07T08:23:42.181Z,1008.95
2018-05-07T08:24:42.211Z,1008.92
2018-05-07T08:25:42.180Z,1008.88
2018-05-07T08:26:42.160Z,1008.90
2018-05-07T08:27:43.101Z,1008.86
2018-05-07T08:28:42.145Z,1008.85
2018-05-07T08:29:42.180Z,1008.89
2018-05-07T08:30:42.200Z,1008.87
2018-05-07T08:31:42.134Z,1008.83
2018-05-07T08:32:42.123Z,1008.85
2018-05-07T08:33:42.112Z,1008.83
2018-05-07T08:34:42.109Z,1008.83
2018-05-07T08:35:42.101Z,1008.83
2018-05-07T08:36:42.132Z,1008.85
2018-05-07T08:37:42.086Z,1008.84
2018-05-07T08:38:42.077Z,1008.80
2018-05-07T08:39:42.069Z,1008.80
2018-05-07T08:40:42.070Z,1008.81
2018-05-07T08:41:42.068Z,1008.78
2018-05-07T08:42:42.063Z,1008.77
2018-05-07T08:43:42.039Z,1008.76
2018-05-07T08:44:42.051Z,1008.73
2018-05-07T08:45:42.037Z,1008.72
2018-05-07T08:46:42.051Z,1008.70
2018-05-07T08:47:42.028Z,1008.70
2018-05-07T08:48:42.021Z,1008.68
2018-05-07T08:49:42.014Z,1008.69
2018-05-07T08:50:42.016Z,1008.69
2018-05-07T08:51:42.134Z,1008.69
2018-05-07T08:52:42.084Z,1008.66
2018-05-07T08:53:41.997Z,1008.68
2018-05-07T08:54:41.992Z,1008.65
2018-05-07T08:55:41.987Z,1008.66
2018-05-07T08:56:41.980Z,1008.69
2018-05-07T08:57:42.024Z,1008.67
2018-05-07T08:58:41.970Z,1008.69
2018-05-07T08:59:41.970Z,1008.68
2018-05-07T09:00:41.965Z,1008.65
2018-05-07T09:01:41.949Z,1008.64
2018-05-07T09:02:42.570Z,1008.62
2018-05-07T09:03:41.950Z,1008.63
2018-05-07T09:04:41.948Z,1008.61
2018-05-07T09:05:41.936Z,1008.59
2018-05-07T09:06:41.934Z,1008.53
2018-05-07T09:07:41.921Z,1008.56
2018-05-07T09:08:42.086Z,1008.54
2018-05-07T09:09:41.910Z,1008.54
2018-05-07T09:10:41.919Z,1008.53
2018-05-07T09:11:41.903Z,1008.50
2018-05-07T09:12:41.912Z,1008.52
2018-05-07T09:13:41.935Z,1008.54
2018-05-07T09:14:41.931Z,1008.53
2018-05-07T09:15:41.910Z,1008.50
2018-05-07T09:16:41.892Z,1008.43
2018-05-07T09:17:41.887Z,1008.44
2018-05-07T09:18:41.886Z,1008.47
2018-05-07T09:19:41.912Z,1008.45
2018-05-07T09:20:41.885Z,1008.42
2018-05-07T09:21:41.864Z,1008.44
2018-05-07T09:22:41.874Z,1008.41
2018-05-07T09:23:41.877Z,1008.44
2018-05-07T09:24:41.915Z,1008.45
2018-05-07T09:25:41.861Z,1008.43
2018-05-07T09:26:41.876Z,1008.43
2018-05-07T09:27:41.867Z,1008.40
2018-05-07T09:28:41.850Z,1008.43
2018-05-07T09:29:41.899Z,1008.36
2018-05-07T09:30:41.863Z,1008.38
2018-05-07T09:31:41.858Z,1008.39
2018-05-07T09:32:41.842Z,1008.39
2018-05-07T09:33:41.857Z,1008.40
2018-05-07T09:34:41.852Z,1008.44
2018-05-07T09:35:41.883Z,1008.43
2018-05-07T09:36:41.836Z,1008.40
2018-05-07T09:37:41.873Z,1008.40
2018-05-07T09:38:41.850Z,1008.38
2018-05-07T09:39:41.854Z,1008.36
2018-05-07T09:40:41.852Z,1008.40
2018-05-07T09:41:41.847Z,1008.36
2018-05-07T09:42:41.899Z,1008.37
2018-05-07T09:43:41.856Z,1008.36
2018-05-07T09:44:41.851Z,1008.35
2018-05-07T09:45:41.847Z,1008.34
2018-05-07T09:46:41.855Z,1008.32
2018-05-07T09:47:41.868Z,1008.29
2018-05-07T09:48:41.870Z,1008.32
2018-05-07T09:49:42.126Z,1008.30
2018-05-07T09:50:41.847Z,1008.29
2018-05-07T09:51:41.861Z,1008.35
2018-05-07T09:52:41.861Z,1008.29
2018-05-07T09:53:41.868Z,1008.31
2018-05-07T09:54:41.865Z,1008.35
2018-05-07T09:55:41.874Z,1008.32
2018-05-07T09:56:41.867Z,1008.31
2018-05-07T09:57:41.858Z,1008.33
2018-05-07T09:58:41.891Z,1008.31
2018-05-07T09:59:41.863Z,1008.29
2018-05-07T10:00:41.914Z,1008.28
2018-05-07T10:01:41.878Z,1008.29
2018-05-07T10:02:41.920Z,1008.30
2018-05-07T10:03:41.887Z,1008.25
2018-05-07T10:04:41.887Z,1008.27
2018-05-07T10:05:41.885Z,1008.27
2018-05-07T10:06:41.894Z,1008.23
2018-05-07T10:07:41.908Z,1008.26
2018-05-07T10:08:41.908Z,1008.28
2018-05-07T10:09:41.897Z,1008.27
2018-05-07T10:10:41.919Z,1008.27
2018-05-07T10:11:41.925Z,1008.34
2018-05-07T10:12:42.005Z,1008.38
2018-05-07T10:13:41.923Z,1008.37
2018-05-07T10:14:41.939Z,1008.35
2018-05-07T10:15:41.926Z,1008.30
2018-05-07T10:16:41.940Z,1008.29
2018-05-07T10:17:41.951Z,1008.30
2018-05-07T10:18:42.014Z,1008.28
2018-05-07T10:19:41.963Z,1008.30
2018-05-07T10:20:41.969Z,1008.29
2018-05-07T10:21:41.972Z,1008.34
2018-05-07T10:22:41.964Z,1008.36
2018-05-07T10:23:41.977Z,1008.44
2018-05-07T10:24:41.988Z,1008.47
2018-05-07T10:25:42.000Z,1008.49
2018-05-07T10:26:41.997Z,1008.52
2018-05-07T10:27:41.998Z,1008.59
2018-05-07T10:28:42.018Z,1008.75
2018-05-07T10:29:42.032Z,1008.91
2018-05-07T10:30:42.030Z,1009.06
2018-05-07T10:31:42.045Z,1008.37
2018-05-07T10:32:42.045Z,1008.24
2018-05-07T10:33:42.051Z,1008.61
2018-05-07T10:34:42.076Z,1008.12
2018-05-07T10:35:42.070Z,1008.17
2018-05-07T10:36:42.063Z,1008.22
2018-05-07T10:37:42.073Z,1007.99
2018-05-07T10:38:42.085Z,1008.03
2018-05-07T10:39:42.178Z,1008.47
2018-05-07T10:40:42.088Z,1008.16
2018-05-07T10:41:42.175Z,1008.20
2018-05-07T10:42:42.170Z,1008.20
2018-05-07T10:43:42.118Z,1007.92
2018-05-07T10:44:42.125Z,1007.95
2018-05-07T10:45:42.131Z,1007.97
2018-05-07T10:46:42.128Z,1007.91
2018-05-07T10:47:42.165Z,1007.95
2018-05-07T10:48:42.137Z,1007.92
2018-05-07T10:49:42.155Z,1007.85
2018-05-07T10:50:42.138Z,1007.85
2018-05-07T10:51:42.155Z,1007.85
2018-05-07T10:52:42.148Z,1007.91
2018-05-07T10:53:42.186Z,1007.81
2018-05-07T10:54:42.162Z,1007.82
2018-05-07T10:55:42.157Z,1007.81
2018-05-07T10:56:42.154Z,1007.88
2018-05-07T10:57:42.227Z,1007.84
2018-05-07T10:58:42.164Z,1007.89
2018-05-07T10:59:42.173Z,1007.86
2018-05-07T11:00:42.178Z,1007.82
2018-05-07T11:01:42.262Z,1007.86
2018-05-07T11:02:42.171Z,1007.83
2018-05-07T11:03:42.210Z,1007.78
2018-05-07T11:04:42.176Z,1007.78
2018-05-07T11:05:42.168Z,1007.73
2018-05-07T11:06:42.162Z,1007.76
2018-05-07T11:07:42.164Z,1007.74
2018-05-07T11:08:42.175Z,1007.78
2018-05-07T11:09:42.211Z,1007.73
2018-05-07T11:10:42.182Z,1007.67
2018-05-07T11:11:42.172Z,1007.69
2018-05-07T11:12:42.180Z,1007.69
2018-05-07T11:13:42.166Z,1007.69
2018-05-07T11:14:42.242Z,1007.71
2018-05-07T11:15:42.164Z,1007.73
2018-05-07T11:16:42.167Z,1007.70
2018-05-07T11:17:42.161Z,1007.73
2018-05-07T11:18:42.165Z,1007.65
2018-05-07T11:19:42.203Z,1007.93
2018-05-07T11:20:42.244Z,1008.00
2018-05-07T11:21:42.158Z,1007.68
2018-05-07T11:22:42.162Z,1007.62
2018-05-07T11:23:42.165Z,1007.60
2018-05-07T11:24:42.162Z,1007.62
2018-05-07T11:25:42.243Z,1007.72
2018-05-07T11:26:42.164Z,1007.73
2018-05-07T11:27:42.163Z,1007.90
2018-05-07T11:28:42.153Z,1008.02
2018-05-07T11:29:42.189Z,1008.32
2018-05-07T11:30:42.217Z,1008.36
2018-05-07T11:31:42.151Z,1008.41
2018-05-07T11:32:42.139Z,1008.40
2018-05-07T11:33:42.144Z,1008.48
2018-05-07T11:34:42.144Z,1008.47
2018-05-07T11:35:42.689Z,1008.43
2018-05-07T11:36:42.230Z,1008.45
2018-05-07T11:37:42.193Z,1008.47
2018-05-07T11:38:42.153Z,1008.50
2018-05-07T11:39:42.156Z,1008.54
2018-05-07T11:40:42.165Z,1008.59
2018-05-07T11:41:42.176Z,1008.56
2018-05-07T11:42:42.197Z,1008.58
2018-05-07T11:43:42.169Z,1008.55
2018-05-07T11:44:42.177Z,1008.54
2018-05-07T11:45:42.319Z,1008.58
2018-05-07T11:46:42.189Z,1008.62
2018-05-07T11:47:42.211Z,1008.65
2018-05-07T11:48:42.190Z,1008.72
2018-05-07T11:49:42.199Z,1008.82
2018-05-07T11:50:42.207Z,1008.91
2018-05-07T11:51:42.248Z,1008.87
2018-05-07T11:52:42.216Z,1008.89
2018-05-07T11:53:42.223Z,1008.95
2018-05-07T11:54:42.243Z,1009.04
2018-05-07T11:55:42.276Z,1009.01
2018-05-07T11:56:42.629Z,1008.89
2018-05-07T11:57:42.250Z,1008.86
2018-05-07T11:58:42.320Z,1008.74
2018-05-07T11:59:42.261Z,1008.94
2018-05-07T12:00:42.291Z,1008.78
2018-05-07T12:01:42.287Z,1007.68
2018-05-07T12:02:42.391Z,1008.75
2018-05-07T12:03:42.302Z,1007.78
2018-05-07T12:04:42.300Z,1008.08
2018-05-07T12:05:42.323Z,1007.74
2018-05-07T12:06:42.322Z,1007.64
2018-05-07T12:07:42.394Z,1007.46
2018-05-07T12:08:42.332Z,1007.63
2018-05-07T12:09:42.343Z,1007.46
2018-05-07T12:10:42.345Z,1007.52
2018-05-07T12:11:42.367Z,1007.49
2018-05-07T12:12:42.365Z,1007.43
2018-05-07T12:13:42.385Z,1007.42
2018-05-07T12:14:42.377Z,1007.34
2018-05-07T12:15:42.446Z,1007.36
2018-05-07T12:16:42.389Z,1007.34
2018-05-07T12:17:42.390Z,1007.26
2018-05-07T12:18:42.420Z,1007.31
2018-05-07T12:19:42.547Z,1007.29
2018-05-07T12:20:42.412Z,1007.27
2018-05-07T12:21:42.417Z,1007.30
2018-05-07T12:22:42.409Z,1007.24
2018-05-07T12:23:42.419Z,1007.29
2018-05-07T12:24:42.414Z,1007.40
2018-05-07T12:25:42.423Z,1007.29
2018-05-07T12:26:42.433Z,1007.42
2018-05-07T12:27:42.418Z,1007.24
2018-05-07T12:28:42.434Z,1007.37
2018-05-07T12:29:42.456Z,1007.28
2018-05-07T12:30:42.423Z,1007.20
2018-05-07T12:31:42.650Z,1007.18
2018-05-07T12:32:42.441Z,1007.17
2018-05-07T12:33:42.427Z,1007.10
2018-05-07T12:34:42.511Z,1007.17
2018-05-07T12:35:42.427Z,1007.12
2018-05-07T12:36:42.442Z,1007.12
2018-05-07T12:37:42.470Z,1007.05
2018-05-07T12:38:42.442Z,1007.08
2018-05-07T12:39:42.454Z,1007.12
2018-05-07T12:40:42.461Z,1007.20
2018-05-07T12:41:42.445Z,1007.20
2018-05-07T12:42:42.454Z,1007.17
2018-05-07T12:43:42.445Z,1007.23
2018-05-07T12:44:42.441Z,1007.16
2018-05-07T12:45:42.517Z,1007.15
2018-05-07T12:46:43.756Z,1007.17
2018-05-07T12:47:42.437Z,1007.12
2018-05-07T12:48:42.449Z,1007.14
2018-05-07T12:49:42.444Z,1007.08
2018-05-07T12:50:42.449Z,1007.10
2018-05-07T12:51:42.472Z,1007.04
2018-05-07T12:52:42.484Z,1007.02
2018-05-07T12:53:42.441Z,1007.02
2018-05-07T12:54:42.433Z,1007.01
2018-05-07T12:55:43.232Z,1006.94
2018-05-07T12:56:42.467Z,1006.95
2018-05-07T12:57:42.431Z,1006.96
2018-05-07T12:58:42.439Z,1006.90
2018-05-07T12:59:42.444Z,1006.91
2018-05-07T13:00:42.444Z,1006.93
2018-05-07T13:01:42.775Z,1006.91
2018-05-07T13:02:42.448Z,1006.86
2018-05-07T13:03:42.448Z,1006.85
2018-05-07T13:04:42.428Z,1006.86
2018-05-07T13:05:42.433Z,1006.82
2018-05-07T13:06:42.435Z,1006.81
2018-05-07T13:07:42.447Z,1006.81
2018-05-07T13:08:42.446Z,1006.82
2018-05-07T13:09:42.432Z,1006.82
2018-05-07T13:10:42.430Z,1006.77
2018-05-07T13:11:42.447Z,1006.73
2018-05-07T13:12:42.420Z,1006.71
2018-05-07T13:13:42.453Z,1006.70
2018-05-07T13:14:42.463Z,1006.69
2018-05-07T13:15:42.448Z,1006.65
2018-05-07T13:16:42.415Z,1006.62
2018-05-07T13:17:42.420Z,1006.63
2018-05-07T13:18:42.420Z,1006.66
2018-05-07T13:19:42.443Z,1006.58
2018-05-07T13:20:42.425Z,1006.57
2018-05-07T13:21:42.779Z,1006.59
2018-05-07T13:22:42.409Z,1006.56
2018-05-07T13:23:42.408Z,1006.52
2018-05-07T13:24:43.288Z,1006.53
2018-05-07T13:25:42.405Z,1006.49
2018-05-07T13:26:42.406Z,1006.54
2018-05-07T13:27:42.405Z,1006.66
2018-05-07T13:28:42.390Z,1006.53
2018-05-07T13:29:42.396Z,1006.49
2018-05-07T13:30:42.540Z,1006.46
2018-05-07T13:31:42.396Z,1006.53
2018-05-07T13:32:42.390Z,1006.49
2018-05-07T13:33:42.391Z,1006.45
2018-05-07T13:34:42.389Z,1006.44
2018-05-07T13:35:42.393Z,1006.42
2018-05-07T13:36:42.431Z,1006.44
2018-05-07T13:37:42.397Z,1006.53
2018-05-07T13:38:42.374Z,1006.45
2018-05-07T13:39:42.375Z,1006.50
2018-05-07T13:40:42.378Z,1006.40
2018-05-07T13:41:42.413Z,1006.43
2018-05-07T13:42:42.372Z,1006.37
2018-05-07T13:43:42.373Z,1006.38
2018-05-07T13:44:42.372Z,1006.56
2018-05-07T13:45:42.369Z,1006.38
2018-05-07T13:46:42.405Z,1006.37
2018-05-07T13:47:42.370Z,1006.41
2018-05-07T13:48:42.408Z,1006.38
2018-05-07T13:49:42.359Z,1006.44
2018-05-07T13:50:42.364Z,1006.32
2018-05-07T13:51:42.355Z,1006.31
2018-05-07T13:52:42.925Z,1006.27
2018-05-07T13:53:42.622Z,1006.25
2018-05-07T13:54:42.358Z,1006.34
2018-05-07T13:55:42.361Z,1006.26
2018-05-07T13:56:42.347Z,1006.20
2018-05-07T13:57:42.355Z,1006.27
2018-05-07T13:58:42.355Z,1006.46
2018-05-07T13:59:42.431Z,1006.44
2018-05-07T14:00:42.347Z,1006.24
2018-05-07T14:01:42.338Z,1006.36
2018-05-07T14:02:42.383Z,1006.39
2018-05-07T14:03:42.349Z,1006.30
2018-05-07T14:04:42.362Z,1006.40
2018-05-07T14:05:42.398Z,1006.28
2018-05-07T14:06:42.349Z,1006.38
2018-05-07T14:07:42.465Z,1006.32
2018-05-07T14:08:42.345Z,1006.38
2018-05-07T14:09:42.334Z,1006.41
2018-05-07T14:10:42.331Z,1007.14
2018-05-07T14:11:42.345Z,1006.87
2018-05-07T14:12:42.632Z,1006.54
2018-05-07T14:13:42.333Z,1006.51
2018-05-07T14:14:42.343Z,1006.91
2018-05-07T14:15:42.361Z,1007.10
2018-05-07T14:16:42.462Z,1007.03
2018-05-07T14:17:42.327Z,1006.17
2018-05-07T14:18:42.336Z,1006.19
2018-05-07T14:19:42.363Z,1006.06
2018-05-07T14:20:42.336Z,1006.05
2018-05-07T14:21:42.340Z,1006.02
2018-05-07T14:22:42.372Z,1006.00
2018-05-07T14:23:42.331Z,1005.96
2018-05-07T14:24:42.321Z,1005.91
2018-05-07T14:25:42.487Z,1006.05
2018-05-07T14:26:42.317Z,1006.28
2018-05-07T14:27:42.333Z,1006.64
2018-05-07T14:28:42.331Z,1006.05
2018-05-07T14:29:42.345Z,1006.00
2018-05-07T14:30:42.327Z,1005.90
2018-05-07T14:31:42.360Z,1005.89
2018-05-07T14:32:43.278Z,1005.85
2018-05-07T14:33:42.314Z,1005.92
2018-05-07T14:34:42.328Z,1005.96
2018-05-07T14:35:42.332Z,1005.97
2018-05-07T14:36:42.305Z,1005.91
2018-05-07T14:37:42.332Z,1005.84
2018-05-07T14:38:42.381Z,1005.81
2018-05-07T14:39:42.322Z,1005.90
2018-05-07T14:40:42.318Z,1006.23
2018-05-07T14:41:42.322Z,1006.98
2018-05-07T14:42:42.366Z,1006.87
2018-05-07T14:43:42.316Z,1006.44
2018-05-07T14:44:42.311Z,1006.92
2018-05-07T14:45:42.314Z,1007.23
2018-05-07T14:46:42.309Z,1006.35
2018-05-07T14:47:42.307Z,1006.21
2018-05-07T14:48:42.313Z,1006.17
2018-05-07T14:49:42.313Z,1007.87
2018-05-07T14:50:42.316Z,1008.15
2018-05-07T14:51:42.316Z,1007.15
2018-05-07T14:52:42.441Z,1006.19
2018-05-07T14:53:42.354Z,1007.23
2018-05-07T14:54:42.319Z,1005.93
2018-05-07T14:55:42.356Z,1005.97
2018-05-07T14:56:42.326Z,1005.78
2018-05-07T14:57:42.323Z,1005.73
2018-05-07T14:58:42.398Z,1005.89
2018-05-07T14:59:42.322Z,1006.13
2018-05-07T15:00:42.317Z,1006.17
2018-05-07T15:01:42.323Z,1007.01
2018-05-07T15:02:42.341Z,1007.65
2018-05-07T15:03:42.321Z,1007.53
2018-05-07T15:04:42.336Z,1007.70
2018-05-07T15:05:42.332Z,1007.42
2018-05-07T15:06:42.329Z,1006.75
2018-05-07T15:07:42.329Z,1006.52
2018-05-07T15:08:42.365Z,1006.01
2018-05-07T15:09:42.339Z,1005.81
2018-05-07T15:10:42.343Z,1005.76
2018-05-07T15:11:42.349Z,1005.75
2018-05-07T15:12:42.352Z,1005.73
2018-05-07T15:13:42.351Z,1005.71
2018-05-07T15:14:42.349Z,1005.84
2018-05-07T15:15:42.362Z,1005.74
2018-05-07T15:16:42.350Z,1005.70
2018-05-07T15:17:42.384Z,1005.68
2018-05-07T15:18:42.361Z,1005.65
2018-05-07T15:19:42.493Z,1005.67
2018-05-07T15:20:42.365Z,1005.66
2018-05-07T15:21:42.358Z,1005.65
2018-05-07T15:22:42.354Z,1005.64
2018-05-07T15:23:42.354Z,1005.62
2018-05-07T15:24:42.364Z,1005.63
2018-05-07T15:25:42.364Z,1005.62
2018-05-07T15:26:44.437Z,1005.60
2018-05-07T15:27:42.363Z,1005.59
2018-05-07T15:28:42.363Z,1005.58
2018-05-07T15:29:42.402Z,1005.56
2018-05-07T15:30:42.369Z,1005.58